Etusivu
METAR-TAF:

METAR-TAF

Lentoasemat :

Keokuk Municipal Airport

Keokuk, Iowa, Yhdysvallat

Leveyspiiri: 40-28N, Pituuspiiri: 091-26W, korkeus merenpinnasta: 205 m

Tämänhetkinen sää

Tämä raportti tehtiin 16 minuuttia sitten, kello 07.55 UTC
Tuuli 6 kn lännestä
Lämpötila 9°C
Kosteus 100%
Ilmanpaine 1015 hPa
Näkyvyys: 16.1 km
Hajonneita pilviä 8000 ft:n korkeudessa

METAR: KEOK 290755Z AUTO 28006KT 10SM BKN080 09/09 A2996 RMK AO2

Aika: 03:11 (08:11 UTC)


TAF: puuttuu

Säähavainnot ja -ennusteet yli 4000 lentoasemalta (METAR- ja TAF-raportit).

Käytössä olevat sääasemat on merkitty karttaan keltaisilla ja punaisilla pisteillä.

Aseta hiiri pisteen päälle nähdäksesi sääaseman nimen.

Klikkaa sitten nähdäksesi säähavainnot ja -ennusteet.

Kartan vaihtaminen: klikkaa mustalla rastilla varustettuja vihreitä pisteitä, niin voit zoomata sisään; viivalla varustettua vihreää pistettä, niin voit zoomata ulos tai vihreitä nuolia, niin pääset viereisille kartoille.


METAR-TAF: